sensor_id;sensor_type;location;lat;lon;timestamp;temperature;humidity
9973;DHT22;5027;53.560;10.062;2023-07-08T00:00:43;20.90;99.90
9973;DHT22;5027;53.560;10.062;2023-07-08T00:03:12;20.90;99.90
9973;DHT22;5027;53.560;10.062;2023-07-08T00:05:38;20.80;99.90
9973;DHT22;5027;53.560;10.062;2023-07-08T00:08:07;20.80;99.90
9973;DHT22;5027;53.560;10.062;2023-07-08T00:10:34;20.90;99.90
9973;DHT22;5027;53.560;10.062;2023-07-08T00:13:01;20.90;99.90
9973;DHT22;5027;53.560;10.062;2023-07-08T00:15:29;20.80;99.90
9973;DHT22;5027;53.560;10.062;2023-07-08T00:17:58;20.80;99.90
9973;DHT22;5027;53.560;10.062;2023-07-08T00:20:41;20.90;99.90
9973;DHT22;5027;53.560;10.062;2023-07-08T00:23:11;20.90;99.90
9973;DHT22;5027;53.560;10.062;2023-07-08T00:25:38;20.80;99.90
9973;DHT22;5027;53.560;10.062;2023-07-08T00:30:36;20.80;99.90
9973;DHT22;5027;53.560;10.062;2023-07-08T00:33:06;20.80;99.90
9973;DHT22;5027;53.560;10.062;2023-07-08T00:35:38;20.70;99.90
9973;DHT22;5027;53.560;10.062;2023-07-08T00:38:27;20.70;99.90
9973;DHT22;5027;53.560;10.062;2023-07-08T00:41:06;20.70;99.90
9973;DHT22;5027;53.560;10.062;2023-07-08T00:43:45;20.70;99.90
9973;DHT22;5027;53.560;10.062;2023-07-08T00:48:45;20.70;99.90
9973;DHT22;5027;53.560;10.062;2023-07-08T00:51:12;20.70;99.90
9973;DHT22;5027;53.560;10.062;2023-07-08T00:53:39;20.70;99.90
9973;DHT22;5027;53.560;10.062;2023-07-08T00:56:36;20.70;99.90
9973;DHT22;5027;53.560;10.062;2023-07-08T00:59:29;20.70;99.90
9973;DHT22;5027;53.560;10.062;2023-07-08T01:01:57;20.60;99.90
9973;DHT22;5027;53.560;10.062;2023-07-08T01:04:35;20.60;99.90
9973;DHT22;5027;53.560;10.062;2023-07-08T01:07:04;20.60;99.90
9973;DHT22;5027;53.560;10.062;2023-07-08T01:09:37;20.60;99.90
9973;DHT22;5027;53.560;10.062;2023-07-08T01:12:10;20.60;99.90
9973;DHT22;5027;53.560;10.062;2023-07-08T01:14:39;20.60;99.90
9973;DHT22;5027;53.560;10.062;2023-07-08T01:17:09;20.60;99.90
9973;DHT22;5027;53.560;10.062;2023-07-08T01:19:41;20.50;99.90
9973;DHT22;5027;53.560;10.062;2023-07-08T01:22:09;20.50;99.90
9973;DHT22;5027;53.560;10.062;2023-07-08T01:24:38;20.50;99.90
9973;DHT22;5027;53.560;10.062;2023-07-08T01:27:08;20.50;99.90
9973;DHT22;5027;53.560;10.062;2023-07-08T01:29:36;20.50;99.90
9973;DHT22;5027;53.560;10.062;2023-07-08T01:32:03;20.40;99.90
9973;DHT22;5027;53.560;10.062;2023-07-08T01:34:31;20.40;99.90
9973;DHT22;5027;53.560;10.062;2023-07-08T01:37:00;20.40;99.90
9973;DHT22;5027;53.560;10.062;2023-07-08T01:39:30;20.40;99.90
9973;DHT22;5027;53.560;10.062;2023-07-08T01:41:57;20.40;99.90
9973;DHT22;5027;53.560;10.062;2023-07-08T01:44:32;20.40;99.90
9973;DHT22;5027;53.560;10.062;2023-07-08T01:47:20;20.40;99.90
9973;DHT22;5027;53.560;10.062;2023-07-08T01:49:48;20.40;99.90
9973;DHT22;5027;53.560;10.062;2023-07-08T01:52:16;20.40;99.90
9973;DHT22;5027;53.560;10.062;2023-07-08T01:54:44;20.40;99.90
9973;DHT22;5027;53.560;10.062;2023-07-08T01:57:10;20.40;99.90
9973;DHT22;5027;53.560;10.062;2023-07-08T01:59:37;20.40;99.90
9973;DHT22;5027;53.560;10.062;2023-07-08T02:02:04;20.40;99.90
9973;DHT22;5027;53.560;10.062;2023-07-08T02:04:30;20.40;99.90
9973;DHT22;5027;53.560;10.062;2023-07-08T02:06:59;20.30;99.90
9973;DHT22;5027;53.560;10.062;2023-07-08T02:09:27;20.40;99.90
9973;DHT22;5027;53.560;10.062;2023-07-08T02:11:54;20.30;99.90
9973;DHT22;5027;53.560;10.062;2023-07-08T02:14:22;20.30;99.90
9973;DHT22;5027;53.560;10.062;2023-07-08T02:16:49;20.30;99.90
9973;DHT22;5027;53.560;10.062;2023-07-08T02:19:15;20.20;99.90
9973;DHT22;5027;53.560;10.062;2023-07-08T02:21:42;20.20;99.90
9973;DHT22;5027;53.560;10.062;2023-07-08T02:24:09;20.20;99.90
9973;DHT22;5027;53.560;10.062;2023-07-08T02:26:36;20.20;99.90
9973;DHT22;5027;53.560;10.062;2023-07-08T02:29:03;20.20;99.90
9973;DHT22;5027;53.560;10.062;2023-07-08T02:31:30;20.20;99.90
9973;DHT22;5027;53.560;10.062;2023-07-08T02:33:57;20.20;99.90
9973;DHT22;5027;53.560;10.062;2023-07-08T02:36:23;20.20;99.90
9973;DHT22;5027;53.560;10.062;2023-07-08T02:38:52;20.10;99.90
9973;DHT22;5027;53.560;10.062;2023-07-08T02:41:19;20.10;99.90
9973;DHT22;5027;53.560;10.062;2023-07-08T02:43:46;20.00;99.90
9973;DHT22;5027;53.560;10.062;2023-07-08T02:46:12;20.10;99.90
9973;DHT22;5027;53.560;10.062;2023-07-08T02:48:40;20.20;99.90
9973;DHT22;5027;53.560;10.062;2023-07-08T02:51:09;20.20;99.90
9973;DHT22;5027;53.560;10.062;2023-07-08T02:53:36;20.10;99.90
9973;DHT22;5027;53.560;10.062;2023-07-08T02:56:03;20.10;99.90
9973;DHT22;5027;53.560;10.062;2023-07-08T02:58:30;20.20;99.90
9973;DHT22;5027;53.560;10.062;2023-07-08T03:00:57;20.20;99.90
9973;DHT22;5027;53.560;10.062;2023-07-08T03:03:37;20.20;99.90
9973;DHT22;5027;53.560;10.062;2023-07-08T03:06:05;20.10;99.90
9973;DHT22;5027;53.560;10.062;2023-07-08T03:08:34;20.20;99.90
9973;DHT22;5027;53.560;10.062;2023-07-08T03:11:03;20.20;99.90
9973;DHT22;5027;53.560;10.062;2023-07-08T03:13:31;20.20;99.90
9973;DHT22;5027;53.560;10.062;2023-07-08T03:15:58;20.10;99.90
9973;DHT22;5027;53.560;10.062;2023-07-08T03:18:26;20.10;99.90
9973;DHT22;5027;53.560;10.062;2023-07-08T03:20:54;20.10;99.90
9973;DHT22;5027;53.560;10.062;2023-07-08T03:23:23;20.10;99.90
9973;DHT22;5027;53.560;10.062;2023-07-08T03:25:52;20.10;99.90
9973;DHT22;5027;53.560;10.062;2023-07-08T03:28:20;20.10;99.90
9973;DHT22;5027;53.560;10.062;2023-07-08T03:30:52;20.00;99.90
9973;DHT22;5027;53.560;10.062;2023-07-08T03:33:22;20.00;99.90
9973;DHT22;5027;53.560;10.062;2023-07-08T03:35:50;20.00;99.90
9973;DHT22;5027;53.560;10.062;2023-07-08T03:38:17;20.00;99.90
9973;DHT22;5027;53.560;10.062;2023-07-08T03:40:46;20.00;99.90
9973;DHT22;5027;53.560;10.062;2023-07-08T03:43:12;20.00;99.90
9973;DHT22;5027;53.560;10.062;2023-07-08T03:45:39;20.10;99.90
9973;DHT22;5027;53.560;10.062;2023-07-08T03:48:11;20.10;99.90
9973;DHT22;5027;53.560;10.062;2023-07-08T03:50:41;20.10;99.90
9973;DHT22;5027;53.560;10.062;2023-07-08T03:53:08;20.00;99.90
9973;DHT22;5027;53.560;10.062;2023-07-08T03:55:37;20.10;99.90
9973;DHT22;5027;53.560;10.062;2023-07-08T03:58:05;20.00;99.90
9973;DHT22;5027;53.560;10.062;2023-07-08T04:00:34;20.00;99.90
9973;DHT22;5027;53.560;10.062;2023-07-08T04:03:02;20.00;99.90
9973;DHT22;5027;53.560;10.062;2023-07-08T04:05:29;20.00;99.90
9973;DHT22;5027;53.560;10.062;2023-07-08T04:07:56;20.10;99.90
9973;DHT22;5027;53.560;10.062;2023-07-08T04:10:22;20.10;99.90
9973;DHT22;5027;53.560;10.062;2023-07-08T04:12:49;20.20;99.90
9973;DHT22;5027;53.560;10.062;2023-07-08T04:15:16;20.20;99.90
9973;DHT22;5027;53.560;10.062;2023-07-08T04:17:45;20.20;99.90
9973;DHT22;5027;53.560;10.062;2023-07-08T04:20:16;20.10;99.90
9973;DHT22;5027;53.560;10.062;2023-07-08T04:22:45;20.10;99.90
9973;DHT22;5027;53.560;10.062;2023-07-08T04:25:12;20.10;99.90
9973;DHT22;5027;53.560;10.062;2023-07-08T04:27:40;20.20;99.90
9973;DHT22;5027;53.560;10.062;2023-07-08T04:30:09;20.20;99.90
9973;DHT22;5027;53.560;10.062;2023-07-08T04:32:39;20.20;99.90
9973;DHT22;5027;53.560;10.062;2023-07-08T04:35:09;20.20;99.90
9973;DHT22;5027;53.560;10.062;2023-07-08T04:37:36;20.20;99.90
9973;DHT22;5027;53.560;10.062;2023-07-08T04:40:07;20.20;99.90
9973;DHT22;5027;53.560;10.062;2023-07-08T04:42:37;20.20;99.90
9973;DHT22;5027;53.560;10.062;2023-07-08T04:45:04;20.20;99.90
9973;DHT22;5027;53.560;10.062;2023-07-08T04:47:32;20.30;99.90
9973;DHT22;5027;53.560;10.062;2023-07-08T04:49:59;20.30;99.90
9973;DHT22;5027;53.560;10.062;2023-07-08T04:52:26;20.30;99.90
9973;DHT22;5027;53.560;10.062;2023-07-08T04:54:53;20.40;99.90
9973;DHT22;5027;53.560;10.062;2023-07-08T04:57:20;20.40;99.90
9973;DHT22;5027;53.560;10.062;2023-07-08T04:59:47;20.40;99.90
9973;DHT22;5027;53.560;10.062;2023-07-08T05:02:14;20.50;99.90
9973;DHT22;5027;53.560;10.062;2023-07-08T05:04:41;20.50;99.90
9973;DHT22;5027;53.560;10.062;2023-07-08T05:07:07;20.50;99.90
9973;DHT22;5027;53.560;10.062;2023-07-08T05:09:34;20.50;99.90
9973;DHT22;5027;53.560;10.062;2023-07-08T05:12:02;20.50;99.90
9973;DHT22;5027;53.560;10.062;2023-07-08T05:14:29;20.60;99.90
9973;DHT22;5027;53.560;10.062;2023-07-08T05:16:57;20.60;99.90
9973;DHT22;5027;53.560;10.062;2023-07-08T05:19:23;20.60;99.90
9973;DHT22;5027;53.560;10.062;2023-07-08T05:21:51;20.60;99.90
9973;DHT22;5027;53.560;10.062;2023-07-08T05:24:17;20.60;99.90
9973;DHT22;5027;53.560;10.062;2023-07-08T05:26:44;20.60;99.90
9973;DHT22;5027;53.560;10.062;2023-07-08T05:29:11;20.70;99.90
9973;DHT22;5027;53.560;10.062;2023-07-08T05:31:37;20.70;99.90
9973;DHT22;5027;53.560;10.062;2023-07-08T05:34:15;20.70;99.90
9973;DHT22;5027;53.560;10.062;2023-07-08T05:36:42;20.70;99.90
9973;DHT22;5027;53.560;10.062;2023-07-08T05:39:08;20.70;99.90
9973;DHT22;5027;53.560;10.062;2023-07-08T05:41:35;20.70;99.90
9973;DHT22;5027;53.560;10.062;2023-07-08T05:44:02;20.70;99.90
9973;DHT22;5027;53.560;10.062;2023-07-08T05:46:28;20.70;99.90
9973;DHT22;5027;53.560;10.062;2023-07-08T05:48:55;20.80;99.90
9973;DHT22;5027;53.560;10.062;2023-07-08T05:51:26;20.80;99.90
9973;DHT22;5027;53.560;10.062;2023-07-08T05:53:52;20.80;99.90
9973;DHT22;5027;53.560;10.062;2023-07-08T05:56:19;20.80;99.90
9973;DHT22;5027;53.560;10.062;2023-07-08T05:58:46;20.80;99.90
9973;DHT22;5027;53.560;10.062;2023-07-08T06:01:12;20.90;99.90
9973;DHT22;5027;53.560;10.062;2023-07-08T06:03:39;20.90;99.90
9973;DHT22;5027;53.560;10.062;2023-07-08T06:06:06;20.90;99.90
9973;DHT22;5027;53.560;10.062;2023-07-08T06:08:34;20.90;99.90
9973;DHT22;5027;53.560;10.062;2023-07-08T06:11:01;20.90;99.90
9973;DHT22;5027;53.560;10.062;2023-07-08T06:13:28;20.90;99.90
9973;DHT22;5027;53.560;10.062;2023-07-08T06:15:55;20.90;99.90
9973;DHT22;5027;53.560;10.062;2023-07-08T06:18:22;20.90;99.90
9973;DHT22;5027;53.560;10.062;2023-07-08T06:20:57;21.00;99.90
9973;DHT22;5027;53.560;10.062;2023-07-08T06:23:25;21.00;99.90
9973;DHT22;5027;53.560;10.062;2023-07-08T06:25:52;21.00;99.90
9973;DHT22;5027;53.560;10.062;2023-07-08T06:28:19;21.00;99.90
9973;DHT22;5027;53.560;10.062;2023-07-08T06:30:48;21.00;99.90
9973;DHT22;5027;53.560;10.062;2023-07-08T06:33:15;21.00;99.90
9973;DHT22;5027;53.560;10.062;2023-07-08T06:35:43;21.00;99.90
9973;DHT22;5027;53.560;10.062;2023-07-08T06:38:10;21.10;99.90
9973;DHT22;5027;53.560;10.062;2023-07-08T06:40:37;21.10;99.90
9973;DHT22;5027;53.560;10.062;2023-07-08T06:43:04;21.10;99.90
9973;DHT22;5027;53.560;10.062;2023-07-08T06:45:36;21.10;99.90
9973;DHT22;5027;53.560;10.062;2023-07-08T06:48:03;21.10;99.90
9973;DHT22;5027;53.560;10.062;2023-07-08T06:50:30;21.10;99.90
9973;DHT22;5027;53.560;10.062;2023-07-08T06:52:58;21.10;99.90
9973;DHT22;5027;53.560;10.062;2023-07-08T06:55:25;21.10;99.90
9973;DHT22;5027;53.560;10.062;2023-07-08T06:57:52;21.10;99.90
9973;DHT22;5027;53.560;10.062;2023-07-08T07:00:19;21.10;99.90
9973;DHT22;5027;53.560;10.062;2023-07-08T07:02:45;21.20;99.90
9973;DHT22;5027;53.560;10.062;2023-07-08T07:05:12;21.20;99.90
9973;DHT22;5027;53.560;10.062;2023-07-08T07:07:39;21.20;99.90
9973;DHT22;5027;53.560;10.062;2023-07-08T07:10:06;21.20;99.90
9973;DHT22;5027;53.560;10.062;2023-07-08T07:12:34;21.20;99.90
9973;DHT22;5027;53.560;10.062;2023-07-08T07:15:01;21.20;99.90
9973;DHT22;5027;53.560;10.062;2023-07-08T07:17:28;21.20;99.90
9973;DHT22;5027;53.560;10.062;2023-07-08T07:19:54;21.20;99.90
9973;DHT22;5027;53.560;10.062;2023-07-08T07:22:21;21.30;99.90
9973;DHT22;5027;53.560;10.062;2023-07-08T07:24:48;21.30;99.90
9973;DHT22;5027;53.560;10.062;2023-07-08T07:27:15;21.20;99.90
9973;DHT22;5027;53.560;10.062;2023-07-08T07:29:44;21.30;99.90
9973;DHT22;5027;53.560;10.062;2023-07-08T07:32:12;21.30;99.90
9973;DHT22;5027;53.560;10.062;2023-07-08T07:34:39;21.30;99.90
9973;DHT22;5027;53.560;10.062;2023-07-08T07:37:11;21.30;99.90
9973;DHT22;5027;53.560;10.062;2023-07-08T07:39:39;21.30;99.90
9973;DHT22;5027;53.560;10.062;2023-07-08T07:42:06;21.30;99.90
9973;DHT22;5027;53.560;10.062;2023-07-08T07:44:34;21.30;99.90
9973;DHT22;5027;53.560;10.062;2023-07-08T07:47:02;21.30;99.90
9973;DHT22;5027;53.560;10.062;2023-07-08T07:49:29;21.30;99.90
9973;DHT22;5027;53.560;10.062;2023-07-08T07:51:56;21.30;99.90
9973;DHT22;5027;53.560;10.062;2023-07-08T07:54:22;21.30;99.90
9973;DHT22;5027;53.560;10.062;2023-07-08T07:56:49;21.30;99.90
9973;DHT22;5027;53.560;10.062;2023-07-08T07:59:16;21.30;99.90
9973;DHT22;5027;53.560;10.062;2023-07-08T08:01:43;21.30;99.90
9973;DHT22;5027;53.560;10.062;2023-07-08T08:04:10;21.30;99.90
9973;DHT22;5027;53.560;10.062;2023-07-08T08:06:38;21.40;99.90
9973;DHT22;5027;53.560;10.062;2023-07-08T08:09:06;21.30;99.90
9973;DHT22;5027;53.560;10.062;2023-07-08T08:11:33;21.30;99.90
9973;DHT22;5027;53.560;10.062;2023-07-08T08:14:01;21.40;99.90
9973;DHT22;5027;53.560;10.062;2023-07-08T08:16:28;21.50;99.90
9973;DHT22;5027;53.560;10.062;2023-07-08T08:18:54;21.50;99.90
9973;DHT22;5027;53.560;10.062;2023-07-08T08:21:21;21.50;99.90
9973;DHT22;5027;53.560;10.062;2023-07-08T08:23:48;21.40;99.90
9973;DHT22;5027;53.560;10.062;2023-07-08T08:26:15;21.40;99.90
9973;DHT22;5027;53.560;10.062;2023-07-08T08:28:41;21.40;99.90
9973;DHT22;5027;53.560;10.062;2023-07-08T08:31:08;21.40;99.90
9973;DHT22;5027;53.560;10.062;2023-07-08T08:33:35;21.40;99.90
9973;DHT22;5027;53.560;10.062;2023-07-08T08:36:01;21.40;99.90
9973;DHT22;5027;53.560;10.062;2023-07-08T08:38:29;21.40;99.90
9973;DHT22;5027;53.560;10.062;2023-07-08T08:40:56;21.50;99.90
9973;DHT22;5027;53.560;10.062;2023-07-08T08:43:31;21.60;99.90
9973;DHT22;5027;53.560;10.062;2023-07-08T08:46:09;21.50;99.90
9973;DHT22;5027;53.560;10.062;2023-07-08T08:48:55;21.50;99.90
9973;DHT22;5027;53.560;10.062;2023-07-08T08:51:26;21.50;99.90
9973;DHT22;5027;53.560;10.062;2023-07-08T08:53:56;21.50;99.90
9973;DHT22;5027;53.560;10.062;2023-07-08T08:56:45;21.50;99.90
9973;DHT22;5027;53.560;10.062;2023-07-08T09:02:01;21.60;99.90
9973;DHT22;5027;53.560;10.062;2023-07-08T09:04:33;21.60;99.90
9973;DHT22;5027;53.560;10.062;2023-07-08T09:07:08;21.60;99.90
9973;DHT22;5027;53.560;10.062;2023-07-08T09:09:49;21.50;99.90
9973;DHT22;5027;53.560;10.062;2023-07-08T09:12:20;21.50;99.90
9973;DHT22;5027;53.560;10.062;2023-07-08T09:14:50;21.50;99.90
9973;DHT22;5027;53.560;10.062;2023-07-08T09:17:21;21.50;99.90
9973;DHT22;5027;53.560;10.062;2023-07-08T09:25:45;21.50;99.90
9973;DHT22;5027;53.560;10.062;2023-07-08T09:28:14;21.50;99.90
9973;DHT22;5027;53.560;10.062;2023-07-08T09:30:47;21.60;99.90
9973;DHT22;5027;53.560;10.062;2023-07-08T09:33:14;21.60;99.90
9973;DHT22;5027;53.560;10.062;2023-07-08T09:35:43;21.60;99.90
9973;DHT22;5027;53.560;10.062;2023-07-08T09:38:17;21.50;99.90
9973;DHT22;5027;53.560;10.062;2023-07-08T09:40:49;21.50;99.90
9973;DHT22;5027;53.560;10.062;2023-07-08T09:43:26;21.50;99.90
9973;DHT22;5027;53.560;10.062;2023-07-08T09:45:58;21.60;99.90
9973;DHT22;5027;53.560;10.062;2023-07-08T09:48:28;21.60;99.90
9973;DHT22;5027;53.560;10.062;2023-07-08T09:50:57;21.60;99.90
9973;DHT22;5027;53.560;10.062;2023-07-08T09:53:25;21.60;99.90
9973;DHT22;5027;53.560;10.062;2023-07-08T09:55:56;21.60;99.90
9973;DHT22;5027;53.560;10.062;2023-07-08T09:58:27;21.60;99.90
9973;DHT22;5027;53.560;10.062;2023-07-08T10:00:57;21.60;99.90
9973;DHT22;5027;53.560;10.062;2023-07-08T10:03:28;21.60;99.90
9973;DHT22;5027;53.560;10.062;2023-07-08T10:05:58;21.70;99.90
9973;DHT22;5027;53.560;10.062;2023-07-08T10:08:37;21.80;99.90
9973;DHT22;5027;53.560;10.062;2023-07-08T10:13:50;21.60;99.90
9973;DHT22;5027;53.560;10.062;2023-07-08T10:16:37;21.70;99.90
9973;DHT22;5027;53.560;10.062;2023-07-08T10:19:16;21.90;99.90
9973;DHT22;5027;53.560;10.062;2023-07-08T10:22:00;21.80;99.90
9973;DHT22;5027;53.560;10.062;2023-07-08T10:25:02;21.90;99.90
9973;DHT22;5027;53.560;10.062;2023-07-08T10:30:25;21.70;99.90
9973;DHT22;5027;53.560;10.062;2023-07-08T10:36:05;21.70;99.90
9973;DHT22;5027;53.560;10.062;2023-07-08T10:39:22;21.70;99.90
9973;DHT22;5027;53.560;10.062;2023-07-08T10:45:13;21.80;99.90
9973;DHT22;5027;53.560;10.062;2023-07-08T10:48:14;21.80;99.90
9973;DHT22;5027;53.560;10.062;2023-07-08T10:51:09;21.70;99.90
9973;DHT22;5027;53.560;10.062;2023-07-08T10:56:37;21.70;99.90
9973;DHT22;5027;53.560;10.062;2023-07-08T10:59:24;22.10;99.90
9973;DHT22;5027;53.560;10.062;2023-07-08T11:04:59;22.00;99.90
9973;DHT22;5027;53.560;10.062;2023-07-08T11:07:41;22.10;99.90
9973;DHT22;5027;53.560;10.062;2023-07-08T11:10:22;22.10;99.90
9973;DHT22;5027;53.560;10.062;2023-07-08T11:13:14;22.00;99.90
9973;DHT22;5027;53.560;10.062;2023-07-08T11:15:49;22.00;99.90
9973;DHT22;5027;53.560;10.062;2023-07-08T11:18:39;22.00;99.90
9973;DHT22;5027;53.560;10.062;2023-07-08T11:21:11;22.00;99.90
9973;DHT22;5027;53.560;10.062;2023-07-08T11:24:00;22.00;99.90
9973;DHT22;5027;53.560;10.062;2023-07-08T11:29:23;22.20;99.90
9973;DHT22;5027;53.560;10.062;2023-07-08T11:31:51;22.00;99.90
9973;DHT22;5027;53.560;10.062;2023-07-08T11:34:19;22.10;99.90
9973;DHT22;5027;53.560;10.062;2023-07-08T11:36:49;22.20;99.90
9973;DHT22;5027;53.560;10.062;2023-07-08T11:39:33;22.20;99.90
9973;DHT22;5027;53.560;10.062;2023-07-08T11:44:35;21.80;99.90
9973;DHT22;5027;53.560;10.062;2023-07-08T11:47:16;22.00;99.90
9973;DHT22;5027;53.560;10.062;2023-07-08T11:49:44;21.80;99.90
9973;DHT22;5027;53.560;10.062;2023-07-08T11:52:17;21.70;99.90
9973;DHT22;5027;53.560;10.062;2023-07-08T11:54:48;21.70;99.90
9973;DHT22;5027;53.560;10.062;2023-07-08T11:57:36;21.80;99.90
9973;DHT22;5027;53.560;10.062;2023-07-08T12:00:18;22.20;99.90
9973;DHT22;5027;53.560;10.062;2023-07-08T12:02:54;22.20;99.90
9973;DHT22;5027;53.560;10.062;2023-07-08T12:05:32;22.00;99.90
9973;DHT22;5027;53.560;10.062;2023-07-08T12:07:59;21.90;99.90
9973;DHT22;5027;53.560;10.062;2023-07-08T12:10:37;21.80;99.90
9973;DHT22;5027;53.560;10.062;2023-07-08T12:13:14;21.80;99.90
9973;DHT22;5027;53.560;10.062;2023-07-08T12:15:41;21.90;99.90
9973;DHT22;5027;53.560;10.062;2023-07-08T12:18:34;21.80;99.90
9973;DHT22;5027;53.560;10.062;2023-07-08T12:21:03;21.80;99.90
9973;DHT22;5027;53.560;10.062;2023-07-08T12:23:30;22.10;99.90
9973;DHT22;5027;53.560;10.062;2023-07-08T12:25:57;22.70;99.90
9973;DHT22;5027;53.560;10.062;2023-07-08T12:28:24;22.90;99.90
9973;DHT22;5027;53.560;10.062;2023-07-08T12:30:52;23.00;99.90
9973;DHT22;5027;53.560;10.062;2023-07-08T12:33:29;22.60;99.90
9973;DHT22;5027;53.560;10.062;2023-07-08T12:35:56;22.40;99.90
9973;DHT22;5027;53.560;10.062;2023-07-08T12:38:31;22.10;99.90
9973;DHT22;5027;53.560;10.062;2023-07-08T12:41:02;22.00;99.90
9973;DHT22;5027;53.560;10.062;2023-07-08T12:43:31;22.00;99.90
9973;DHT22;5027;53.560;10.062;2023-07-08T12:45:58;22.30;99.90
9973;DHT22;5027;53.560;10.062;2023-07-08T12:48:25;22.40;99.90
9973;DHT22;5027;53.560;10.062;2023-07-08T12:50:57;22.20;99.90
9973;DHT22;5027;53.560;10.062;2023-07-08T12:53:24;22.00;99.90
9973;DHT22;5027;53.560;10.062;2023-07-08T12:55:54;22.00;99.90
9973;DHT22;5027;53.560;10.062;2023-07-08T12:58:27;21.90;99.90
9973;DHT22;5027;53.560;10.062;2023-07-08T13:00:55;22.40;99.90
9973;DHT22;5027;53.560;10.062;2023-07-08T13:03:27;22.90;99.90
9973;DHT22;5027;53.560;10.062;2023-07-08T13:05:56;23.20;99.90
9973;DHT22;5027;53.560;10.062;2023-07-08T13:08:25;23.20;99.90
9973;DHT22;5027;53.560;10.062;2023-07-08T13:10:55;22.70;99.90
9973;DHT22;5027;53.560;10.062;2023-07-08T13:13:28;22.50;99.90
9973;DHT22;5027;53.560;10.062;2023-07-08T13:15:56;22.70;99.90
9973;DHT22;5027;53.560;10.062;2023-07-08T13:18:34;22.70;99.90
9973;DHT22;5027;53.560;10.062;2023-07-08T13:21:03;22.50;99.90
9973;DHT22;5027;53.560;10.062;2023-07-08T13:23:32;22.30;99.90
9973;DHT22;5027;53.560;10.062;2023-07-08T13:25:59;22.60;99.90
9973;DHT22;5027;53.560;10.062;2023-07-08T13:28:27;22.80;99.90
9973;DHT22;5027;53.560;10.062;2023-07-08T13:31:00;22.60;99.90
9973;DHT22;5027;53.560;10.062;2023-07-08T13:33:33;22.50;99.90
9973;DHT22;5027;53.560;10.062;2023-07-08T13:36:05;22.70;99.90
9973;DHT22;5027;53.560;10.062;2023-07-08T13:38:34;22.70;99.90
9973;DHT22;5027;53.560;10.062;2023-07-08T13:41:03;23.00;99.90
9973;DHT22;5027;53.560;10.062;2023-07-08T13:43:32;23.20;99.90
9973;DHT22;5027;53.560;10.062;2023-07-08T13:45:59;22.80;99.90
9973;DHT22;5027;53.560;10.062;2023-07-08T13:48:42;22.50;99.90
9973;DHT22;5027;53.560;10.062;2023-07-08T13:51:14;22.30;99.90
9973;DHT22;5027;53.560;10.062;2023-07-08T13:53:47;22.20;99.90
9973;DHT22;5027;53.560;10.062;2023-07-08T13:56:33;22.50;99.90
9973;DHT22;5027;53.560;10.062;2023-07-08T13:59:08;22.50;99.90
9973;DHT22;5027;53.560;10.062;2023-07-08T14:01:39;22.90;99.90
9973;DHT22;5027;53.560;10.062;2023-07-08T14:04:06;23.20;99.80
9973;DHT22;5027;53.560;10.062;2023-07-08T14:06:35;23.10;99.90
9973;DHT22;5027;53.560;10.062;2023-07-08T14:09:19;22.90;99.90
9973;DHT22;5027;53.560;10.062;2023-07-08T14:11:47;22.60;99.90
9973;DHT22;5027;53.560;10.062;2023-07-08T14:14:14;22.40;99.90
9973;DHT22;5027;53.560;10.062;2023-07-08T14:16:46;22.30;99.90
9973;DHT22;5027;53.560;10.062;2023-07-08T14:19:19;22.20;99.90
9973;DHT22;5027;53.560;10.062;2023-07-08T14:21:54;22.20;99.90
9973;DHT22;5027;53.560;10.062;2023-07-08T14:24:22;22.20;99.90
9973;DHT22;5027;53.560;10.062;2023-07-08T14:26:48;22.20;99.90
9973;DHT22;5027;53.560;10.062;2023-07-08T14:29:15;22.10;99.90
9973;DHT22;5027;53.560;10.062;2023-07-08T14:31:42;22.10;99.90
9973;DHT22;5027;53.560;10.062;2023-07-08T14:34:13;22.20;99.90
9973;DHT22;5027;53.560;10.062;2023-07-08T14:36:41;22.40;99.90
9973;DHT22;5027;53.560;10.062;2023-07-08T14:39:11;22.40;99.90
9973;DHT22;5027;53.560;10.062;2023-07-08T14:41:39;22.50;99.90
9973;DHT22;5027;53.560;10.062;2023-07-08T14:44:19;22.50;99.90
9973;DHT22;5027;53.560;10.062;2023-07-08T14:46:46;22.40;99.90
9973;DHT22;5027;53.560;10.062;2023-07-08T14:49:19;22.30;99.90
9973;DHT22;5027;53.560;10.062;2023-07-08T14:51:46;22.40;99.90
9973;DHT22;5027;53.560;10.062;2023-07-08T14:54:13;22.50;99.90
9973;DHT22;5027;53.560;10.062;2023-07-08T14:56:41;22.70;99.90
9973;DHT22;5027;53.560;10.062;2023-07-08T14:59:19;22.70;99.90
9973;DHT22;5027;53.560;10.062;2023-07-08T15:01:46;22.90;98.90
9973;DHT22;5027;53.560;10.062;2023-07-08T15:04:15;22.80;99.90
9973;DHT22;5027;53.560;10.062;2023-07-08T15:06:43;22.60;99.90
9973;DHT22;5027;53.560;10.062;2023-07-08T15:09:11;22.50;99.90
9973;DHT22;5027;53.560;10.062;2023-07-08T15:11:39;22.40;99.90
9973;DHT22;5027;53.560;10.062;2023-07-08T15:14:23;22.40;99.90
9973;DHT22;5027;53.560;10.062;2023-07-08T15:16:51;22.40;99.90
9973;DHT22;5027;53.560;10.062;2023-07-08T15:19:19;22.40;99.90
9973;DHT22;5027;53.560;10.062;2023-07-08T15:21:47;22.30;99.90
9973;DHT22;5027;53.560;10.062;2023-07-08T15:24:14;22.30;99.90
9973;DHT22;5027;53.560;10.062;2023-07-08T15:26:45;22.30;99.90
9973;DHT22;5027;53.560;10.062;2023-07-08T15:29:15;22.30;99.90
9973;DHT22;5027;53.560;10.062;2023-07-08T15:31:42;22.30;99.90
9973;DHT22;5027;53.560;10.062;2023-07-08T15:34:20;22.30;99.90
9973;DHT22;5027;53.560;10.062;2023-07-08T15:36:49;22.30;99.90
9973;DHT22;5027;53.560;10.062;2023-07-08T15:39:16;22.30;99.90
9973;DHT22;5027;53.560;10.062;2023-07-08T15:41:43;22.30;99.90
9973;DHT22;5027;53.560;10.062;2023-07-08T15:44:19;22.30;99.90
9973;DHT22;5027;53.560;10.062;2023-07-08T15:46:47;22.30;99.90
9973;DHT22;5027;53.560;10.062;2023-07-08T15:49:18;22.30;99.90
9973;DHT22;5027;53.560;10.062;2023-07-08T15:51:45;22.30;99.90
9973;DHT22;5027;53.560;10.062;2023-07-08T15:54:17;22.30;99.90
9973;DHT22;5027;53.560;10.062;2023-07-08T15:56:50;22.30;99.90
9973;DHT22;5027;53.560;10.062;2023-07-08T15:59:21;22.30;99.90
9973;DHT22;5027;53.560;10.062;2023-07-08T16:01:50;22.30;99.90
9973;DHT22;5027;53.560;10.062;2023-07-08T16:04:34;22.30;99.90
9973;DHT22;5027;53.560;10.062;2023-07-08T16:07:01;22.30;99.90
9973;DHT22;5027;53.560;10.062;2023-07-08T16:09:28;22.30;99.90
9973;DHT22;5027;53.560;10.062;2023-07-08T16:11:55;22.30;99.90
9973;DHT22;5027;53.560;10.062;2023-07-08T16:14:22;22.30;99.90
9973;DHT22;5027;53.560;10.062;2023-07-08T16:16:52;22.30;99.90
9973;DHT22;5027;53.560;10.062;2023-07-08T16:19:19;22.40;99.90
9973;DHT22;5027;53.560;10.062;2023-07-08T16:21:46;22.40;99.90
9973;DHT22;5027;53.560;10.062;2023-07-08T16:24:13;22.40;99.90
9973;DHT22;5027;53.560;10.062;2023-07-08T16:26:40;22.40;99.90
9973;DHT22;5027;53.560;10.062;2023-07-08T16:29:14;22.40;99.90
9973;DHT22;5027;53.560;10.062;2023-07-08T16:31:42;22.40;99.90
9973;DHT22;5027;53.560;10.062;2023-07-08T16:34:10;22.40;99.90
9973;DHT22;5027;53.560;10.062;2023-07-08T16:36:36;22.40;99.90
9973;DHT22;5027;53.560;10.062;2023-07-08T16:42:33;22.40;99.90
9973;DHT22;5027;53.560;10.062;2023-07-08T16:45:00;22.40;99.90